Schneifelwetter: Wetterstation Hallschlag, 537 m . NN
Wetterdaten: Samstag, 29.08.2009
Datum Zeit Temp. A. Feuchte A. Luftdruck Regen Wind Richtung Richtung Sonnenschein Helligkeit T Regen Taupunkt Windchill
29.08.2009 00:09 7,8 C 79 % 1015 hPa 0,0 l/m 7,7 km/h (2 Bft) W-SW22.5 250 0 min 0 lux 0,00 min 4,4 C 6,8 C
29.08.2009 00:24 7,7 C 79 % 1015 hPa 0,0 l/m 7,8 km/h (2 Bft) W-SW 250 0 min 0 lux 0,00 min 4,3 C 6,6 C
29.08.2009 00:39 7,7 C 80 % 1015 hPa 0,0 l/m 6,8 km/h (2 Bft) W-SW22.5 250 0 min 0 lux 0,00 min 4,5 C 7,4 C
29.08.2009 00:54 7,6 C 81 % 1015 hPa 0,0 l/m 9,0 km/h (2 Bft) W-SW22.5 255 0 min 0 lux 0,00 min 4,6 C 5,6 C
29.08.2009 01:09 7,5 C 81 % 1015 hPa 0,0 l/m 9,9 km/h (2 Bft) W-SW22.5 255 0 min 0 lux 0,00 min 4,5 C 4,9 C
29.08.2009 01:24 7,5 C 82 % 1015 hPa 0,0 l/m 12,6 km/h (3 Bft) W22.5 265 0 min 0 lux 0,00 min 4,6 C 3,3 C
29.08.2009 01:39 7,7 C 83 % 1015 hPa 0,0 l/m 10,0 km/h (2 Bft) W22.5 265 0 min 0 lux 0,00 min 5,0 C 5,1 C
29.08.2009 01:54 7,9 C 84 % 1015 hPa 0,0 l/m 17,8 km/h (3 Bft) W22.5 260 0 min 0 lux 0,00 min 5,4 C 1,4 C
29.08.2009 02:09 8,2 C 84 % 1015 hPa 0,0 l/m 22,0 km/h (4 Bft) W22.5 265 0 min 0 lux 0,00 min 5,7 C 0,3 C
29.08.2009 02:24 8,5 C 85 % 1015 hPa 0,0 l/m 24,3 km/h (4 Bft) W22.5 275 0 min 0 lux 0,00 min 6,1 C -0,0 C
29.08.2009 02:39 8,7 C 85 % 1015 hPa 0,0 l/m 22,1 km/h (4 Bft) W45 270 0 min 0 lux 0,00 min 6,3 C 0,9 C
29.08.2009 02:54 8,8 C 85 % 1015 hPa 0,0 l/m 24,3 km/h (4 Bft) W45 270 0 min 0 lux 0,00 min 6,4 C 0,4 C
29.08.2009 03:09 8,9 C 85 % 1015 hPa 0,0 l/m 23,3 km/h (4 Bft) W22.5 280 0 min 0 lux 0,00 min 6,5 C 0,8 C
29.08.2009 03:24 9,1 C 86 % 1015 hPa 0,0 l/m 22,0 km/h (4 Bft) W22.5 275 0 min 0 lux 0,00 min 6,9 C 1,5 C
29.08.2009 03:39 9,4 C 86 % 1016 hPa 0,0 l/m 29,3 km/h (5 Bft) W45 270 0 min 0 lux 0,00 min 7,2 C -0,0 C
29.08.2009 03:54 9,5 C 86 % 1016 hPa 0,0 l/m 26,7 km/h (4 Bft) W45 270 0 min 0 lux 0,00 min 7,3 C 0,7 C
29.08.2009 04:09 9,5 C 86 % 1016 hPa 0,0 l/m 28,6 km/h (4 Bft) W45 270 0 min 0 lux 0,00 min 7,3 C 0,3 C
29.08.2009 04:24 9,5 C 87 % 1016 hPa 0,0 l/m 17,8 km/h (3 Bft) W45 265 0 min 0 lux 0,00 min 7,4 C 3,4 C
29.08.2009 04:39 9,6 C 87 % 1016 hPa 0,0 l/m 19,1 km/h (3 Bft) W-SW45 255 0 min 0 lux 0,00 min 7,5 C 3,1 C
29.08.2009 04:54 9,8 C 87 % 1016 hPa 0,0 l/m 17,4 km/h (3 Bft) W22.5 275 0 min 0 lux 0,00 min 7,7 C 3,9 C
29.08.2009 05:09 9,9 C 87 % 1016 hPa 0,0 l/m 21,8 km/h (4 Bft) W67.5 270 0 min 0 lux 0,00 min 7,8 C 2,6 C
29.08.2009 05:24 9,9 C 87 % 1016 hPa 0,0 l/m 21,6 km/h (4 Bft) W45 265 0 min 0 lux 0,00 min 7,8 C 2,7 C
29.08.2009 05:39 9,9 C 87 % 1016 hPa 0,0 l/m 20,8 km/h (4 Bft) W22.5 270 0 min 0 lux 0,00 min 7,8 C 2,9 C
29.08.2009 05:54 9,8 C 86 % 1016 hPa 0,0 l/m 25,6 km/h (4 Bft) W22.5 265 0 min 0 lux 0,00 min 7,6 C 1,4 C
29.08.2009 06:09 9,8 C 86 % 1017 hPa 0,0 l/m 21,5 km/h (4 Bft) W45 260 0 min 0 lux 0,00 min 7,6 C 2,6 C
29.08.2009 06:24 9,7 C 86 % 1017 hPa 0,0 l/m 19,1 km/h (3 Bft) W45 270 0 min 0 lux 0,00 min 7,5 C 3,2 C
29.08.2009 06:39 9,8 C 86 % 1017 hPa 0,0 l/m 21,2 km/h (4 Bft) W22.5 270 0 min 197 lux 0,00 min 7,6 C 2,6 C
29.08.2009 06:54 9,7 C 86 % 1017 hPa 0,0 l/m 15,6 km/h (3 Bft) W22.5 260 0 min 889 lux 0,00 min 7,5 C 4,5 C
29.08.2009 07:09 9,7 C 87 % 1017 hPa 0,0 l/m 27,6 km/h (4 Bft) W67.5 265 0 min 2,02 klux 0,00 min 7,6 C 0,8 C
29.08.2009 07:24 9,8 C 87 % 1017 hPa 0,0 l/m 21,8 km/h (4 Bft) W22.5 270 0 min 3,80 klux 0,00 min 7,7 C 2,5 C
29.08.2009 07:39 10,0 C 87 % 1017 hPa 0,0 l/m 15,6 km/h (3 Bft) W45 265 0 min 8,04 klux 0,00 min 7,9 C 4,9 C
29.08.2009 07:54 10,3 C 87 % 1017 hPa 0,0 l/m 15,3 km/h (3 Bft) W45 260 0 min 19,8 klux 0,00 min 8,2 C 5,4 C
29.08.2009 08:09 10,4 C 86 % 1018 hPa 0,0 l/m 23,6 km/h (4 Bft) W-SW45 255 0 min 9,0 klux 0,00 min 8,2 C 2,7 C
29.08.2009 08:24 10,5 C 85 % 1018 hPa 0,0 l/m 25,6 km/h (4 Bft) W45 275 0 min 7,44 klux 0,00 min 8,1 C 2,4 C
29.08.2009 08:39 10,4 C 85 % 1018 hPa 0,0 l/m 19,2 km/h (3 Bft) W45 260 0 min 5,56 klux 0,00 min 8,0 C 4,1 C
29.08.2009 08:54 10,6 C 85 % 1018 hPa 0,0 l/m 20,1 km/h (4 Bft) W22.5 270 0 min 10,9 klux 0,00 min 8,2 C 4,0 C
29.08.2009 09:09 11,0 C 84 % 1018 hPa 0,0 l/m 20,0 km/h (4 Bft) W22.5 275 0 min 19,1 klux 0,00 min 8,4 C 4,6 C
29.08.2009 09:24 11,8 C 83 % 1018 hPa 0,0 l/m 18,5 km/h (3 Bft) W22.5 275 0 min 27,5 klux 0,00 min 9,0 C 6,1 C
29.08.2009 09:46 12,4 C 78 % 1018 hPa 0,0 l/m 29,2 km/h (5 Bft) W22.5 280 0 min 27,7 klux 0,00 min 8,7 C 4,2 C
29.08.2009 10:00 12,3 C 78 % 1019 hPa 0,0 l/m 27,1 km/h (4 Bft) W22.5 280 0 min 20,5 klux 0,00 min 8,6 C 4,5 C
29.08.2009 10:15 12,7 C 78 % 1019 hPa 0,0 l/m 24,7 km/h (4 Bft) W45 275 15 min 55,0 klux 0,00 min 9,0 C 5,6 C
29.08.2009 10:30 13,5 C 76 % 1019 hPa 0,0 l/m 23,4 km/h (4 Bft) W67.5 270 15 min 60,1 klux 0,00 min 9,4 C 6,9 C
29.08.2009 10:45 13,6 C 75 % 1019 hPa 0,0 l/m 27,3 km/h (4 Bft) W45 275 0 min 38,4 klux 0,00 min 9,3 C 6,2 C
29.08.2009 11:01 13,9 C 74 % 1019 hPa 0,0 l/m 25,8 km/h (4 Bft) W22.5 270 16 min 79,7 klux 0,00 min 9,3 C 6,9 C
29.08.2009 11:16 14,1 C 72 % 1019 hPa 0,0 l/m 31,0 km/h (5 Bft) W22.5 275 15 min 60,6 klux 0,00 min 9,1 C 6,3 C
29.08.2009 11:31 14,3 C 72 % 1020 hPa 0,0 l/m 29,8 km/h (5 Bft) W45 270 15 min 76,3 klux 0,00 min 9,3 C 6,7 C
29.08.2009 11:46 15,1 C 66 % 1020 hPa 0,0 l/m 30,3 km/h (5 Bft) W22.5 280 15 min 85,5 klux 0,00 min 8,8 C 7,8 C
29.08.2009 12:00 15,1 C 68 % 1019 hPa 0,0 l/m 32,0 km/h (5 Bft) W45 275 14 min 88,5 klux 0,00 min 9,2 C 7,5 C
29.08.2009 12:15 15,0 C 66 % 1020 hPa 0,0 l/m 25,6 km/h (4 Bft) W45 270 15 min 88,3 klux 0,00 min 8,7 C 8,5 C
29.08.2009 12:30 16,1 C 61 % 1020 hPa 0,0 l/m 31,0 km/h (5 Bft) W45 275 15 min 97,3 klux 0,00 min 8,6 C 9,1 C
29.08.2009 12:46 15,6 C 63 % 1020 hPa 0,0 l/m 20,3 km/h (4 Bft) W45 265 0 min 43,2 klux 0,00 min 8,6 C 10,4 C
29.08.2009 13:01 15,8 C 63 % 1020 hPa 0,0 l/m 28,0 km/h (4 Bft) W45 275 15 min 46,5 klux 0,00 min 8,8 C 9,1 C
29.08.2009 13:16 16,0 C 62 % 1020 hPa 0,0 l/m 31,2 km/h (5 Bft) W22.5 270 15 min 59,6 klux 0,00 min 8,7 C 8,9 C
29.08.2009 13:31 16,0 C 63 % 1020 hPa 0,0 l/m 33,5 km/h (5 Bft) W22.5 265 15 min 104 klux 0,00 min 9,0 C 8,6 C
29.08.2009 13:45 16,4 C 61 % 1020 hPa 0,0 l/m 32,5 km/h (5 Bft) W67.5 275 14 min 98,1 klux 0,00 min 8,9 C 9,3 C
29.08.2009 14:00 16,1 C 61 % 1020 hPa 0,0 l/m 32,2 km/h (5 Bft) W45 275 15 min 103 klux 0,00 min 8,6 C 8,9 C
29.08.2009 14:15 16,1 C 59 % 1020 hPa 0,0 l/m 32,0 km/h (5 Bft) W45 280 15 min 98,5 klux 0,00 min 8,1 C 8,9 C
29.08.2009 14:31 16,1 C 58 % 1020 hPa 0,0 l/m 33,1 km/h (5 Bft) W-SW67.5 255 0 min 43,1 klux 0,00 min 7,8 C 8,8 C
29.08.2009 14:46 16,1 C 60 % 1020 hPa 0,0 l/m 26,6 km/h (4 Bft) W45 275 15 min 88,0 klux 0,00 min 8,3 C 9,8 C
29.08.2009 15:01 16,2 C 59 % 1020 hPa 0,0 l/m 33,0 km/h (5 Bft) W45 260 15 min 91,3 klux 0,00 min 8,2 C 8,9 C
29.08.2009 15:16 15,3 C 60 % 1020 hPa 0,0 l/m 19,6 km/h (3 Bft) W-SW67.5 250 0 min 20,8 klux 0,00 min 7,6 C 10,2 C
29.08.2009 15:30 15,4 C 61 % 1020 hPa 0,0 l/m 23,4 km/h (4 Bft) W-NW67.5 285 14 min 81,6 klux 0,00 min 7,9 C 9,5 C
29.08.2009 15:45 16,0 C 60 % 1020 hPa 0,0 l/m 32,7 km/h (5 Bft) W45 275 15 min 73,6 klux 0,00 min 8,2 C 8,7 C
29.08.2009 16:00 16,8 C 59 % 1020 hPa 0,0 l/m 31,4 km/h (5 Bft) W67.5 265 15 min 78,5 klux 0,00 min 8,7 C 10,0 C
29.08.2009 16:16 17,3 C 57 % 1020 hPa 0,0 l/m 31,5 km/h (5 Bft) W67.5 270 16 min 78,5 klux 0,00 min 8,7 C 10,7 C
29.08.2009 16:31 17,5 C 54 % 1020 hPa 0,0 l/m 26,8 km/h (4 Bft) W45 270 15 min 73,2 klux 0,00 min 8,1 C 11,7 C
29.08.2009 16:46 17,6 C 53 % 1020 hPa 0,0 l/m 30,0 km/h (5 Bft) W45 270 15 min 69,2 klux 0,00 min 7,9 C 11,3 C
29.08.2009 17:01 17,4 C 52 % 1020 hPa 0,0 l/m 25,6 km/h (4 Bft) W67.5 275 15 min 67,8 klux 0,00 min 7,4 C 11,8 C
29.08.2009 17:15 17,3 C 51 % 1020 hPa 0,0 l/m 30,7 km/h (5 Bft) W45 275 14 min 60,3 klux 0,00 min 7,1 C 10,8 C
29.08.2009 17:30 16,5 C 52 % 1020 hPa 0,0 l/m 29,4 km/h (5 Bft) W22.5 265 15 min 52,8 klux 0,00 min 6,6 C 9,9 C
29.08.2009 17:45 16,4 C 53 % 1020 hPa 0,0 l/m 19,8 km/h (3 Bft) W22.5 275 15 min 49,8 klux 0,00 min 6,8 C 11,6 C
29.08.2009 18:01 16,7 C 48 % 1020 hPa 0,0 l/m 26,5 km/h (4 Bft) W22.5 280 16 min 48,0 klux 0,00 min 5,6 C 10,6 C
29.08.2009 18:16 16,6 C 51 % 1020 hPa 0,0 l/m 21,5 km/h (4 Bft) W67.5 270 0 min 43,3 klux 0,00 min 6,4 C 11,5 C
29.08.2009 18:31 16,3 C 52 % 1020 hPa 0,0 l/m 22,3 km/h (4 Bft) W22.5 270 0 min 37,7 klux 0,00 min 6,4 C 10,9 C
29.08.2009 18:46 16,0 C 51 % 1020 hPa 0,0 l/m 19,8 km/h (3 Bft) W45 270 0 min 32,5 klux 0,00 min 5,9 C 11,1 C
29.08.2009 19:00 15,3 C 52 % 1020 hPa 0,0 l/m 16,6 km/h (3 Bft) W22.5 270 0 min 28,2 klux 0,00 min 5,5 C 11,1 C
29.08.2009 19:15 15,0 C 53 % 1020 hPa 0,0 l/m 19,3 km/h (3 Bft) W-NW22.5 285 0 min 23,6 klux 0,00 min 5,5 C 9,9 C
29.08.2009 19:30 14,7 C 52 % 1020 hPa 0,0 l/m 20,6 km/h (4 Bft) W22.5 270 0 min 18,1 klux 0,00 min 5,0 C 9,2 C
29.08.2009 19:45 14,4 C 53 % 1020 hPa 0,0 l/m 14,2 km/h (3 Bft) W22.5 275 0 min 13,4 klux 0,00 min 4,9 C 10,7 C
29.08.2009 20:01 13,6 C 56 % 1020 hPa 0,0 l/m 7,0 km/h (2 Bft) W22.5 270 0 min 10,0 klux 0,00 min 5,0 C 13,2 C
29.08.2009 20:16 12,6 C 57 % 1020 hPa 0,0 l/m 0,0 km/h (0 Bft) W 260 0 min 3,22 klux 0,00 min 4,3 C 12,6 C
29.08.2009 20:31 11,3 C 60 % 1020 hPa 0,0 l/m 0,0 km/h (0 Bft) W 265 0 min 1,42 klux 0,00 min 3,8 C 11,3 C
29.08.2009 20:46 9,9 C 63 % 1020 hPa 0,0 l/m 0,3 km/h (0 Bft) W 260 0 min 301 lux 0,00 min 3,2 C 9,9 C
29.08.2009 21:00 9,0 C 65 % 1020 hPa 0,0 l/m 0,0 km/h (0 Bft) W 260 0 min 44 lux 0,00 min 2,8 C 9,0 C
29.08.2009 21:15 8,2 C 67 % 1020 hPa 0,0 l/m 0,0 km/h (0 Bft) W 260 0 min 4 lux 0,00 min 2,4 C 8,2 C
29.08.2009 21:30 7,7 C 70 % 1020 hPa 0,0 l/m 0,0 km/h (0 Bft) W 260 0 min 0 lux 0,00 min 2,6 C 7,7 C
29.08.2009 21:46 6,9 C 72 % 1021 hPa 0,0 l/m 0,0 km/h (0 Bft) W 265 0 min 0 lux 0,00 min 2,2 C 6,9 C
29.08.2009 22:01 6,3 C 73 % 1021 hPa 0,0 l/m 0,0 km/h (0 Bft) W 260 0 min 0 lux 0,00 min 1,8 C 6,3 C
29.08.2009 22:16 5,9 C 74 % 1021 hPa 0,0 l/m 0,0 km/h (0 Bft) W 260 0 min 0 lux 0,00 min 1,6 C 5,9 C
29.08.2009 22:31 5,5 C 76 % 1021 hPa 0,0 l/m 0,0 km/h (0 Bft) W 260 0 min 0 lux 0,00 min 1,6 C 5,5 C
29.08.2009 22:45 5,1 C 77 % 1021 hPa 0,0 l/m 0,0 km/h (0 Bft) W 260 0 min 0 lux 0,00 min 1,4 C 5,1 C
29.08.2009 23:00 4,8 C 78 % 1021 hPa 0,0 l/m 0,0 km/h (0 Bft) W 265 0 min 0 lux 0,00 min 1,3 C 4,8 C
29.08.2009 23:15 4,5 C 80 % 1021 hPa 0,0 l/m 0,0 km/h (0 Bft) W 265 0 min 0 lux 0,00 min 1,4 C 4,5 C
29.08.2009 23:31 4,3 C 81 % 1021 hPa 0,0 l/m 0,0 km/h (0 Bft) W 265 0 min 0 lux 0,00 min 1,3 C 4,3 C
29.08.2009 23:46 4,7 C 82 % 1021 hPa 0,0 l/m 0,0 km/h (0 Bft) W 265 0 min 0 lux 0,00 min 1,9 C 4,7 C
_ Min-Zeit 23:31 18:01 00:09 - 20:16 - - - - - 23:00 03:39
Minimum _ 4,3 C 48 % 1015 hPa - 0,0 km/h (0 Bft) - - - - - 1,3 C -0,0 C
_ Max-Zeit 16:46 04:24 21:46 00:09 13:31 - - 11:01 13:31 00:09 10:30 20:01
Maximum _ 17,6 C 87 % 1021 hPa 0,0 l/m 33,5 km/h
W (5 Bft)
- - 16 min 104 klux 0,00 min 9,4 C 13,2 C
Durchschnitt _ 11,7 C 72 % 1019 hPa #0,0 l/m 19,4 km/h (3 Bft) W - #6:59 h 27,7 klux #0 min. 6,6 C 6,4 C